ジョージタウン の空港の天気 - METARとTAF

オーウェン ロバーツ国際空港 ( MWCR / GCM ) - ケイマン諸島 ジョージタウン (グランドケイマン)
飛行場実況気象(Metar)
観測時間11/30 15:00 EST (11/30 20:00 UTC)
風向・風速南 2m/s
視程10km以上
天気現象
少しの雲 雲底高度 550m
気温29℃
湿度66%
気圧1013hPa
METARMWCR 302000Z 17004KT 110V260 9999 FEW018 29/22 Q1013
過去の天気等 Google飛行場航空写真 Wunderground天気予報

過去48時間のMETAR

飛行場予報(TAF)
発表時間: 11/30 12:00 EST (11/30 17:00 UTC)
予報対象時間: 30日13時 EST ~ 1日13時 EST
風向・風速東南東 4m/s
視程10km以上
少しの雲 雲底高度 550m
TAF MWCR 301700Z 3018/0118 12008KT 9999 FEW018